Time;durP1;ratioP1;P1;durP2;ratioP2;P2;SDS_P1;SDS_P2;PMS_P1;PMS_P2;Temp;Humidity;BMP_temperature;BMP_pressure;BME280_temperature;BME280_humidity;BME280_pressure;Samples;Min_cycle;Max_cycle;Signal;HPM_P1;HPM_P2
2023/02/11 00:00:40;;;;;;;32.15;18.08;;;0.10;99.90;;;;;;4882596;29;20053;-80
2023/02/11 00:03:07;;;;;;;34.53;18.88;;;0.10;99.90;;;;;;4897653;29;20164;-81
2023/02/11 00:05:34;;;;;;;33.10;18.27;;;0.00;99.90;;;;;;4890295;29;20440;-80
2023/02/11 00:08:01;;;;;;;33.67;18.42;;;0.00;99.90;;;;;;4890139;29;20141;-81
2023/02/11 00:10:27;;;;;;;33.10;19.00;;;0.00;99.90;;;;;;4903414;29;20052;-80
2023/02/11 00:12:55;;;;;;;39.13;20.30;;;0.00;99.90;;;;;;4901788;29;20059;-80
2023/02/11 00:15:22;;;;;;;35.10;20.05;;;0.00;99.90;;;;;;4901379;29;20060;-80
2023/02/11 00:17:48;;;;;;;41.10;20.75;;;0.00;99.90;;;;;;4900156;29;20053;-81
2023/02/11 00:20:15;;;;;;;35.90;20.27;;;0.00;99.90;;;;;;4884478;29;20143;-81
2023/02/11 00:22:42;;;;;;;35.53;19.60;;;0.00;99.90;;;;;;4894878;29;20053;-81
2023/02/11 00:25:09;;;;;;;39.30;19.40;;;0.00;99.90;;;;;;4896010;29;20045;-81
2023/02/11 00:27:36;;;;;;;34.92;19.83;;;0.00;99.90;;;;;;4899828;29;20095;-81
2023/02/11 00:30:04;;;;;;;34.40;20.08;;;-0.10;99.90;;;;;;4897453;29;20051;-80
2023/02/11 00:32:31;;;;;;;39.50;21.25;;;-0.10;99.90;;;;;;4889258;29;20496;-80
2023/02/11 00:34:58;;;;;;;38.10;20.45;;;-0.10;99.90;;;;;;4903809;29;20120;-81
2023/02/11 00:37:24;;;;;;;37.00;21.13;;;-0.10;99.90;;;;;;4902592;29;20083;-81
2023/02/11 00:39:51;;;;;;;37.50;20.40;;;-0.10;99.90;;;;;;4898606;29;20052;-81
2023/02/11 00:42:18;;;;;;;38.78;21.98;;;-0.10;99.90;;;;;;4894129;29;20128;-81
2023/02/11 00:44:45;;;;;;;36.17;20.77;;;-0.10;99.90;;;;;;4900318;29;20184;-81
2023/02/11 00:47:11;;;;;;;35.28;20.52;;;-0.10;99.90;;;;;;4896432;29;20055;-80
2023/02/11 00:49:39;;;;;;;37.38;19.35;;;-0.10;99.90;;;;;;4889653;29;20049;-80
2023/02/11 00:52:06;;;;;;;34.67;19.13;;;-0.10;99.90;;;;;;4897899;29;20572;-81
2023/02/11 00:54:32;;;;;;;38.15;20.35;;;-0.10;99.90;;;;;;4896606;29;20484;-80
2023/02/11 00:56:59;;;;;;;40.00;19.90;;;-0.10;99.90;;;;;;4898558;29;20419;-80
2023/02/11 00:59:26;;;;;;;38.45;20.75;;;-0.20;99.90;;;;;;4886364;29;20135;-81
2023/02/11 01:01:52;;;;;;;38.13;21.15;;;-0.20;99.90;;;;;;4899032;29;20136;-80
2023/02/11 01:04:19;;;;;;;39.67;20.60;;;-0.20;99.90;;;;;;4901281;29;20075;-80
2023/02/11 01:06:46;;;;;;;39.35;21.23;;;-0.10;99.90;;;;;;4897161;29;20052;-80
2023/02/11 01:09:13;;;;;;;34.88;18.30;;;-0.20;99.90;;;;;;4898123;29;20044;-80
2023/02/11 01:11:40;;;;;;;33.05;17.75;;;-0.20;99.90;;;;;;4898441;29;20049;-80
2023/02/11 01:14:06;;;;;;;27.65;15.85;;;-0.20;99.90;;;;;;4894986;29;20061;-80
2023/02/11 01:16:33;;;;;;;28.08;16.55;;;-0.20;99.90;;;;;;4888947;29;20063;-80
2023/02/11 01:19:00;;;;;;;32.28;17.80;;;-0.20;99.90;;;;;;4876783;29;20143;-81
2023/02/11 01:21:26;;;;;;;33.65;19.25;;;-0.20;99.90;;;;;;4902001;29;20056;-81
2023/02/11 01:23:53;;;;;;;30.30;17.00;;;-0.20;99.90;;;;;;4898749;29;20052;-80
2023/02/11 01:26:20;;;;;;;30.55;15.40;;;-0.20;99.90;;;;;;4902166;29;20536;-81
2023/02/11 01:28:47;;;;;;;32.88;17.95;;;-0.20;99.90;;;;;;4897814;29;20095;-80
2023/02/11 01:31:13;;;;;;;31.20;18.42;;;-0.30;99.90;;;;;;4896518;29;20112;-80
2023/02/11 01:33:40;;;;;;;33.83;18.65;;;-0.30;99.90;;;;;;4893318;29;20053;-80
2023/02/11 01:36:07;;;;;;;39.17;20.20;;;-0.30;99.90;;;;;;4897156;29;20521;-81
2023/02/11 01:38:34;;;;;;;28.48;17.33;;;-0.30;99.90;;;;;;4896652;29;20104;-81
2023/02/11 01:41:05;;;;;;;29.80;16.05;;;-0.30;99.90;;;;;;4891907;29;20045;-81
2023/02/11 01:43:36;;;;;;;32.33;16.15;;;-0.30;99.90;;;;;;4891397;29;20055;-80
2023/02/11 01:46:03;;;;;;;36.67;18.52;;;-0.30;99.90;;;;;;4902287;29;20101;-80
2023/02/11 01:48:40;;;;;;;33.33;16.55;;;-0.30;99.90;;;;;;4897235;29;20071;-80
2023/02/11 01:51:29;;;;;;;32.95;18.35;;;-0.30;99.90;;;;;;4897384;29;20132;-81
2023/02/11 01:59:58;;;;;;;32.80;17.80;;;-0.40;99.90;;;;;;4891315;29;20077;-81
2023/02/11 02:02:36;;;;;;;27.48;16.17;;;-0.40;99.90;;;;;;4895553;29;20297;-81
2023/02/11 02:05:15;;;;;;;29.65;16.13;;;-0.40;99.90;;;;;;4897039;29;20053;-81
2023/02/11 02:07:51;;;;;;;28.03;16.50;;;-0.40;99.90;;;;;;4899846;29;20486;-81
2023/02/11 02:10:21;;;;;;;27.83;16.48;;;-0.40;99.90;;;;;;4900019;29;20144;-80
2023/02/11 02:12:48;;;;;;;35.85;19.17;;;-0.50;99.90;;;;;;4895844;29;20049;-81
2023/02/11 02:15:25;;;;;;;32.92;17.75;;;-0.40;99.90;;;;;;4880171;29;20048;-80
2023/02/11 02:18:16;;;;;;;37.50;18.92;;;-0.50;99.90;;;;;;4875877;29;20048;-80
2023/02/11 02:21:02;;;;;;;36.05;18.45;;;-0.50;99.90;;;;;;4886609;29;20080;-80
2023/02/11 02:23:46;;;;;;;30.40;16.92;;;-0.50;99.90;;;;;;4895562;29;20144;-80
2023/02/11 02:26:21;;;;;;;28.17;17.05;;;-0.50;99.90;;;;;;4898744;29;20144;-80
2023/02/11 02:29:09;;;;;;;25.33;15.75;;;-0.50;99.90;;;;;;4874716;29;20131;-80
2023/02/11 02:31:45;;;;;;;31.58;16.65;;;-0.50;99.90;;;;;;4887156;29;20079;-80
2023/02/11 02:34:31;;;;;;;30.10;17.00;;;-0.50;99.90;;;;;;4899278;29;20514;-80
2023/02/11 02:37:13;;;;;;;34.20;20.02;;;-0.50;99.90;;;;;;4903485;29;20053;-80
2023/02/11 02:39:40;;;;;;;31.02;16.77;;;-0.50;99.90;;;;;;4903204;29;20506;-80
2023/02/11 02:42:08;;;;;;;30.30;16.95;;;-0.50;99.90;;;;;;4898840;29;20108;-80
2023/02/11 02:44:34;;;;;;;34.28;18.48;;;-0.60;99.90;;;;;;4894385;29;20059;-80
2023/02/11 02:47:01;;;;;;;28.00;15.27;;;-0.60;99.90;;;;;;4904412;29;20048;-81
2023/02/11 02:49:28;;;;;;;29.67;15.90;;;-0.60;99.90;;;;;;4897207;29;20490;-81
2023/02/11 02:52:36;;;;;;;30.20;15.75;;;-0.60;99.90;;;;;;4892350;29;20045;-80
2023/02/11 02:55:23;;;;;;;32.55;16.73;;;-0.60;99.90;;;;;;4862300;29;20065;-80
2023/02/11 02:58:09;;;;;;;29.35;15.55;;;-0.60;99.90;;;;;;4900066;29;20068;-82
2023/02/11 03:01:07;;;;;;;34.25;15.95;;;-0.60;99.90;;;;;;4898088;29;20053;-80
2023/02/11 03:04:02;;;;;;;30.20;15.50;;;-0.60;99.90;;;;;;4900601;29;20120;-81
2023/02/11 03:06:56;;;;;;;34.70;15.73;;;-0.60;99.90;;;;;;4898012;29;20496;-81
2023/02/11 03:09:41;;;;;;;31.52;17.13;;;-0.60;99.90;;;;;;4888645;29;20144;-80
2023/02/11 03:12:11;;;;;;;29.48;15.90;;;-0.60;99.90;;;;;;4898760;29;20080;-80
2023/02/11 03:14:40;;;;;;;30.38;15.73;;;-0.60;99.90;;;;;;4901263;29;20467;-80
2023/02/11 03:17:09;;;;;;;26.15;14.38;;;-0.60;99.90;;;;;;4906439;29;20056;-81
2023/02/11 03:19:40;;;;;;;27.40;15.02;;;-0.60;99.90;;;;;;4905985;29;20139;-81
2023/02/11 03:22:32;;;;;;;25.30;13.77;;;-0.60;99.90;;;;;;4904750;29;20092;-80
2023/02/11 03:25:00;;;;;;;20.70;12.45;;;-0.60;99.90;;;;;;4898848;29;20112;-80
2023/02/11 03:27:44;;;;;;;26.65;13.55;;;-0.60;99.90;;;;;;4894747;29;20053;-80
2023/02/11 03:30:20;;;;;;;22.50;12.38;;;-0.60;99.90;;;;;;4901489;29;20083;-81
2023/02/11 03:32:51;;;;;;;25.30;13.40;;;-0.60;99.90;;;;;;4898966;29;20052;-81
2023/02/11 03:35:26;;;;;;;25.33;13.10;;;-0.60;99.90;;;;;;4896605;29;20056;-81
2023/02/11 03:38:11;;;;;;;22.20;13.20;;;-0.70;99.90;;;;;;4888314;29;20131;-80
2023/02/11 03:40:40;;;;;;;26.58;12.20;;;-0.70;99.90;;;;;;4902937;29;20052;-80
2023/02/11 03:43:18;;;;;;;22.05;12.50;;;-0.70;99.90;;;;;;4903306;29;20484;-80
2023/02/11 03:45:47;;;;;;;21.20;12.02;;;-0.70;99.90;;;;;;4899866;29;20124;-80
2023/02/11 03:48:30;;;;;;;26.25;13.40;;;-0.70;99.90;;;;;;4903700;29;20044;-80
2023/02/11 03:51:00;;;;;;;23.88;12.82;;;-0.70;99.90;;;;;;4880410;29;20060;-80
2023/02/11 03:53:26;;;;;;;22.38;12.48;;;-0.70;99.90;;;;;;4888916;29;20057;-80
2023/02/11 03:55:55;;;;;;;23.20;12.13;;;-0.70;99.90;;;;;;4897531;29;20060;-81
2023/02/11 03:58:22;;;;;;;21.58;12.38;;;-0.70;99.90;;;;;;4900679;29;20531;-80
2023/02/11 04:00:48;;;;;;;21.38;12.80;;;-0.70;99.90;;;;;;4895878;29;20059;-80
2023/02/11 04:03:15;;;;;;;24.42;12.75;;;-0.70;99.90;;;;;;4905145;29;20048;-81
2023/02/11 04:05:42;;;;;;;29.63;13.35;;;-0.70;99.90;;;;;;4908993;29;20313;-80
2023/02/11 04:08:09;;;;;;;25.88;12.60;;;-0.70;99.90;;;;;;4903884;29;20079;-80
2023/02/11 04:10:36;;;;;;;24.55;12.32;;;-0.70;99.90;;;;;;4881515;29;20108;-80
2023/02/11 04:13:02;;;;;;;20.95;12.13;;;-0.70;99.90;;;;;;4903185;29;20049;-80
2023/02/11 04:15:29;;;;;;;20.83;12.25;;;-0.70;99.90;;;;;;4903632;29;20080;-80
2023/02/11 04:17:56;;;;;;;21.23;12.20;;;-0.70;99.90;;;;;;4897637;29;20137;-80
2023/02/11 04:20:22;;;;;;;20.77;12.23;;;-0.70;99.90;;;;;;4899402;29;20053;-81
2023/02/11 04:22:49;;;;;;;23.20;12.85;;;-0.70;99.90;;;;;;4905651;29;20171;-80
2023/02/11 04:25:16;;;;;;;24.10;12.43;;;-0.70;99.90;;;;;;4916122;29;20558;-80
2023/02/11 04:27:43;;;;;;;21.42;13.20;;;-0.70;99.90;;;;;;4897127;29;20056;-81
2023/02/11 04:30:10;;;;;;;24.27;11.70;;;-0.70;99.90;;;;;;4914077;29;20049;-80
2023/02/11 04:32:36;;;;;;;24.60;13.15;;;-0.70;99.90;;;;;;4910998;29;20080;-80
2023/02/11 04:35:03;;;;;;;23.27;12.85;;;-0.70;99.90;;;;;;4893784;29;20087;-80
2023/02/11 04:37:30;;;;;;;23.58;11.90;;;-0.70;99.90;;;;;;4893075;29;20113;-81
2023/02/11 04:39:57;;;;;;;22.10;11.60;;;-0.80;99.90;;;;;;4910165;29;20095;-82
2023/02/11 04:42:24;;;;;;;25.63;12.30;;;-0.70;99.90;;;;;;4910403;29;20096;-80
2023/02/11 04:44:50;;;;;;;25.25;12.93;;;-0.70;99.90;;;;;;4903909;29;20136;-80
2023/02/11 04:47:17;;;;;;;28.10;13.10;;;-0.80;99.90;;;;;;4888430;29;20045;-81
2023/02/11 04:49:43;;;;;;;24.70;13.38;;;-0.70;99.90;;;;;;4900333;29;20083;-80
2023/02/11 04:52:10;;;;;;;23.17;13.32;;;-0.70;99.90;;;;;;4902722;29;20083;-80
2023/02/11 04:54:37;;;;;;;23.10;13.10;;;-0.80;99.90;;;;;;4895071;29;20081;-81
2023/02/11 04:57:04;;;;;;;23.08;13.35;;;-0.80;99.90;;;;;;4894205;29;20133;-80
2023/02/11 04:59:31;;;;;;;28.85;15.48;;;-0.80;99.90;;;;;;4892892;29;20198;-80
2023/02/11 05:01:57;;;;;;;26.20;13.77;;;-0.80;99.90;;;;;;4888933;29;20136;-80
2023/02/11 05:04:24;;;;;;;26.67;13.75;;;-0.80;99.90;;;;;;4890245;29;20136;-81
2023/02/11 05:06:51;;;;;;;28.88;14.68;;;-0.80;99.90;;;;;;4901053;29;20051;-80
2023/02/11 05:09:17;;;;;;;22.98;14.55;;;-0.80;99.90;;;;;;4878267;29;20052;-80
2023/02/11 05:11:44;;;;;;;37.60;17.77;;;-0.80;99.90;;;;;;4893991;29;20091;-81
2023/02/11 05:14:11;;;;;;;43.97;22.15;;;-0.90;99.90;;;;;;4909975;29;20092;-80
2023/02/11 05:16:38;;;;;;;40.75;21.85;;;-1.00;99.90;;;;;;4898165;29;20091;-81
2023/02/11 05:19:05;;;;;;;42.67;21.95;;;-0.90;99.90;;;;;;4898180;29;20057;-80
2023/02/11 05:21:31;;;;;;;47.13;23.83;;;-1.00;99.90;;;;;;4892135;29;20078;-80
2023/02/11 05:23:58;;;;;;;39.90;21.65;;;-1.00;99.90;;;;;;4892941;29;20095;-81
2023/02/11 05:26:25;;;;;;;46.30;23.63;;;-1.00;99.90;;;;;;4893187;29;20052;-81
2023/02/11 05:28:52;;;;;;;42.13;20.73;;;-0.90;99.90;;;;;;4887009;29;20092;-80
2023/02/11 05:31:19;;;;;;;42.55;21.90;;;-0.90;99.90;;;;;;4886578;29;20101;-80
2023/02/11 05:33:45;;;;;;;43.35;23.00;;;-0.90;99.90;;;;;;4896536;29;20135;-80
2023/02/11 05:36:12;;;;;;;42.50;23.38;;;-0.90;99.90;;;;;;4901495;29;20056;-80
2023/02/11 05:38:41;;;;;;;39.15;22.50;;;-0.90;99.90;;;;;;4894488;29;20049;-80
2023/02/11 05:41:08;;;;;;;47.63;25.10;;;-0.90;99.90;;;;;;4897058;29;20056;-80
2023/02/11 05:43:35;;;;;;;43.83;24.42;;;-0.90;99.90;;;;;;4896126;29;20530;-80
2023/02/11 05:46:03;;;;;;;46.80;24.67;;;-0.90;99.90;;;;;;4891036;29;20048;-80
2023/02/11 05:48:30;;;;;;;41.70;23.40;;;-0.90;99.90;;;;;;4886408;29;20531;-80
2023/02/11 05:50:57;;;;;;;50.63;28.27;;;-0.90;99.90;;;;;;4894571;29;20056;-80
2023/02/11 05:53:24;;;;;;;48.05;26.58;;;-0.90;99.90;;;;;;4890343;29;20464;-80
2023/02/11 05:55:51;;;;;;;60.67;31.95;;;-0.90;99.90;;;;;;4885138;29;20112;-80
2023/02/11 05:58:18;;;;;;;51.60;28.75;;;-0.90;99.90;;;;;;4900316;29;20080;-81
2023/02/11 06:00:44;;;;;;;54.42;29.75;;;-0.90;99.90;;;;;;4894242;29;20132;-80
2023/02/11 06:03:11;;;;;;;50.63;27.88;;;-0.90;99.90;;;;;;4905823;29;20117;-80
2023/02/11 06:05:38;;;;;;;44.90;25.25;;;-1.00;99.90;;;;;;4891212;29;20060;-80
2023/02/11 06:08:05;;;;;;;40.90;22.77;;;-0.90;99.90;;;;;;4893461;29;20048;-80
2023/02/11 06:10:31;;;;;;;42.88;23.08;;;-0.90;99.90;;;;;;4890554;29;20143;-81
2023/02/11 06:12:58;;;;;;;42.50;25.70;;;-1.00;99.90;;;;;;4887098;29;20057;-80
2023/02/11 06:15:24;;;;;;;41.15;22.98;;;-1.00;99.90;;;;;;4892502;29;20116;-80
2023/02/11 06:17:51;;;;;;;50.05;25.67;;;-1.00;99.90;;;;;;4894124;29;20087;-81
2023/02/11 06:20:19;;;;;;;47.72;27.00;;;-0.90;99.90;;;;;;4893042;29;20067;-80
2023/02/11 06:22:45;;;;;;;41.60;25.52;;;-0.90;99.90;;;;;;4897176;29;20480;-81
2023/02/11 06:25:13;;;;;;;49.53;27.48;;;-0.90;99.90;;;;;;4900831;29;20052;-80
2023/02/11 06:27:40;;;;;;;51.50;28.52;;;-0.90;99.90;;;;;;4885833;29;20053;-80
2023/02/11 06:30:08;;;;;;;45.78;26.35;;;-0.90;99.90;;;;;;4894199;29;20088;-80
2023/02/11 06:32:35;;;;;;;49.72;28.23;;;-0.90;99.90;;;;;;4887077;29;20076;-81
2023/02/11 06:35:10;;;;;;;46.00;26.23;;;-0.90;99.90;;;;;;4878207;29;20196;-80
2023/02/11 06:37:38;;;;;;;51.00;28.55;;;-0.90;99.90;;;;;;4886767;29;20049;-80
2023/02/11 06:40:05;;;;;;;45.13;26.77;;;-1.00;99.90;;;;;;4882881;29;20045;-80
2023/02/11 06:42:33;;;;;;;46.13;26.38;;;-1.00;99.90;;;;;;4884697;29;20053;-81
2023/02/11 06:45:00;;;;;;;44.10;24.75;;;-1.00;99.90;;;;;;4901668;29;20053;-80
2023/02/11 06:47:26;;;;;;;40.30;22.33;;;-1.00;99.90;;;;;;4887211;29;20081;-81
2023/02/11 06:49:53;;;;;;;42.10;23.08;;;-1.00;99.90;;;;;;4900542;29;20085;-80
2023/02/11 06:52:20;;;;;;;36.38;20.58;;;-1.00;99.90;;;;;;4906122;29;20079;-81
2023/02/11 06:54:46;;;;;;;43.53;23.80;;;-1.00;99.90;;;;;;4877041;29;20053;-81
2023/02/11 06:57:13;;;;;;;38.90;22.80;;;-1.00;99.90;;;;;;4896999;29;20048;-81
2023/02/11 06:59:40;;;;;;;38.33;22.58;;;-1.00;99.90;;;;;;4895366;29;20072;-80
2023/02/11 07:02:09;;;;;;;40.58;23.23;;;-1.00;99.90;;;;;;4877020;29;20056;-81
2023/02/11 07:04:36;;;;;;;52.80;29.13;;;-1.00;99.90;;;;;;4889574;29;20053;-80
2023/02/11 07:07:02;;;;;;;52.28;25.80;;;-1.00;99.90;;;;;;4894622;29;20085;-80
2023/02/11 07:09:29;;;;;;;46.00;25.20;;;-1.00;99.90;;;;;;4898679;29;20055;-81
2023/02/11 07:11:56;;;;;;;42.17;23.10;;;-1.00;99.90;;;;;;4880588;29;20211;-80
2023/02/11 07:14:22;;;;;;;46.03;24.55;;;-1.00;99.90;;;;;;4895520;29;20422;-80
2023/02/11 07:16:49;;;;;;;46.58;24.83;;;-1.00;99.90;;;;;;4893059;29;20116;-81
2023/02/11 07:19:16;;;;;;;40.63;23.33;;;-1.00;99.90;;;;;;4898785;29;20048;-80
2023/02/11 07:21:43;;;;;;;37.88;21.48;;;-1.00;99.90;;;;;;4891358;29;20187;-80
2023/02/11 07:24:09;;;;;;;63.13;33.00;;;-1.00;99.90;;;;;;4895370;29;20061;-80
2023/02/11 07:26:37;;;;;;;48.10;25.42;;;-1.00;99.90;;;;;;4897162;29;20077;-80
2023/02/11 07:29:04;;;;;;;38.50;21.67;;;-1.00;99.90;;;;;;4900755;29;20499;-80
2023/02/11 07:31:31;;;;;;;38.20;22.08;;;-1.00;99.90;;;;;;4901173;29;20119;-80
2023/02/11 07:34:02;;;;;;;35.03;19.90;;;-1.00;99.90;;;;;;4902446;29;20062;-80
2023/02/11 07:36:30;;;;;;;40.90;21.80;;;-0.90;99.90;;;;;;4907526;29;20084;-81
2023/02/11 07:38:59;;;;;;;38.72;21.00;;;-0.90;99.90;;;;;;4896184;29;20084;-80
2023/02/11 07:41:26;;;;;;;41.88;22.25;;;-0.90;99.90;;;;;;4894537;29;20085;-81
2023/02/11 07:43:53;;;;;;;100.57;46.22;;;-0.80;99.90;;;;;;4897857;29;20068;-81
2023/02/11 07:46:23;;;;;;;53.92;30.38;;;-0.80;99.90;;;;;;4898843;29;20088;-81
2023/02/11 07:48:50;;;;;;;90.28;42.20;;;-0.70;99.90;;;;;;4893972;29;20048;-81
2023/02/11 07:51:18;;;;;;;57.58;29.55;;;-0.60;99.90;;;;;;4890102;29;20136;-80
2023/02/11 07:53:46;;;;;;;74.63;36.90;;;-0.50;99.90;;;;;;4898479;29;20049;-81
2023/02/11 07:56:14;;;;;;;72.47;36.25;;;-0.40;99.90;;;;;;4903274;29;20056;-81
2023/02/11 07:58:41;;;;;;;68.10;33.67;;;-0.30;99.90;;;;;;4897934;29;20143;-81
2023/02/11 08:01:12;;;;;;;43.65;23.55;;;-0.30;99.90;;;;;;4898990;29;20140;-80
2023/02/11 08:03:40;;;;;;;36.90;20.60;;;-0.20;99.90;;;;;;4882309;29;20053;-80
2023/02/11 08:06:13;;;;;;;32.33;20.92;;;-0.10;99.90;;;;;;4894156;29;20075;-81
2023/02/11 08:08:40;;;;;;;36.78;21.25;;;-0.10;99.90;;;;;;4893120;29;20049;-81
2023/02/11 08:11:09;;;;;;;39.85;22.33;;;-0.10;99.90;;;;;;4900106;29;20108;-80
2023/02/11 08:13:36;;;;;;;41.28;23.10;;;-0.10;99.90;;;;;;4894553;29;20049;-81
2023/02/11 08:16:04;;;;;;;43.45;25.15;;;0.00;99.90;;;;;;4891452;29;20068;-80
2023/02/11 08:18:31;;;;;;;41.15;24.05;;;0.00;99.90;;;;;;4903965;29;20400;-81
2023/02/11 08:21:05;;;;;;;42.35;24.00;;;0.10;99.90;;;;;;4898222;29;20121;-81
2023/02/11 08:23:32;;;;;;;46.70;26.17;;;0.10;99.90;;;;;;4895830;29;20067;-81
2023/02/11 08:26:03;;;;;;;45.85;25.40;;;0.20;99.90;;;;;;4897531;29;20417;-80
2023/02/11 08:28:30;;;;;;;43.75;25.33;;;0.30;99.90;;;;;;4900119;29;20048;-81
2023/02/11 08:30:57;;;;;;;42.60;26.27;;;0.30;99.90;;;;;;4896382;29;20097;-81
2023/02/11 08:33:24;;;;;;;47.53;26.63;;;0.40;99.90;;;;;;4890496;29;20527;-80
2023/02/11 08:35:50;;;;;;;43.50;25.60;;;0.50;99.90;;;;;;4888848;29;20139;-81
2023/02/11 08:38:17;;;;;;;43.42;24.83;;;0.50;99.90;;;;;;4899656;29;20062;-81
2023/02/11 08:40:44;;;;;;;43.63;24.70;;;0.60;99.90;;;;;;4901178;29;20055;-82
2023/02/11 08:43:10;;;;;;;46.15;26.17;;;0.70;99.90;;;;;;4901448;29;20052;-80
2023/02/11 08:45:37;;;;;;;46.78;27.55;;;0.80;99.90;;;;;;4902169;29;20057;-81
2023/02/11 08:48:04;;;;;;;44.20;25.58;;;0.80;99.90;;;;;;4881440;29;20460;-80
2023/02/11 08:50:31;;;;;;;42.35;25.48;;;0.90;99.90;;;;;;4884898;29;20053;-80
2023/02/11 08:52:57;;;;;;;40.88;26.00;;;1.00;99.90;;;;;;4892576;29;20057;-80
2023/02/11 08:55:24;;;;;;;46.53;25.85;;;1.10;99.90;;;;;;4898831;29;20101;-80
2023/02/11 08:57:51;;;;;;;43.35;25.40;;;1.20;99.90;;;;;;4893107;29;20058;-80
2023/02/11 09:00:18;;;;;;;44.63;25.90;;;1.30;99.90;;;;;;4892463;29;20096;-80
2023/02/11 09:02:44;;;;;;;43.80;26.65;;;1.30;99.90;;;;;;4874205;29;20131;-80
2023/02/11 09:05:11;;;;;;;46.05;26.88;;;1.40;99.90;;;;;;4902075;29;20080;-82
2023/02/11 09:07:38;;;;;;;50.85;29.10;;;1.40;99.90;;;;;;4895110;29;20077;-80
2023/02/11 09:10:05;;;;;;;48.88;27.90;;;1.40;99.90;;;;;;4876800;29;20067;-80
2023/02/11 09:12:32;;;;;;;44.33;28.25;;;1.40;99.90;;;;;;4881873;29;20132;-81
2023/02/11 09:14:59;;;;;;;41.45;27.05;;;1.40;99.90;;;;;;4892585;29;20056;-79
2023/02/11 09:17:25;;;;;;;44.72;26.83;;;1.40;99.90;;;;;;4890658;29;20053;-81
2023/02/11 09:19:52;;;;;;;44.72;27.73;;;1.40;99.90;;;;;;4886930;29;20068;-78
2023/02/11 09:22:19;;;;;;;43.70;26.67;;;1.40;99.90;;;;;;4891784;29;20061;-81
2023/02/11 09:24:45;;;;;;;40.88;25.92;;;1.40;99.90;;;;;;4873969;29;20056;-80
2023/02/11 09:27:12;;;;;;;48.58;26.77;;;1.40;99.90;;;;;;4881637;29;20055;-80
2023/02/11 09:29:38;;;;;;;46.05;27.38;;;1.40;99.90;;;;;;4883530;29;20132;-80
2023/02/11 09:32:05;;;;;;;55.50;29.08;;;1.40;99.90;;;;;;4895488;29;20132;-83
2023/02/11 09:34:35;;;;;;;51.55;30.25;;;1.40;99.90;;;;;;4891221;29;20053;-80
2023/02/11 09:37:02;;;;;;;47.60;29.10;;;1.40;99.90;;;;;;4876918;29;20135;-81
2023/02/11 09:39:29;;;;;;;45.38;28.00;;;1.40;99.90;;;;;;4896518;29;20087;-83
2023/02/11 09:42:06;;;;;;;47.83;29.15;;;1.40;99.90;;;;;;4891218;29;20068;-80
2023/02/11 09:44:35;;;;;;;47.83;29.52;;;1.40;99.90;;;;;;4887118;29;20196;-80
2023/02/11 09:47:25;;;;;;;54.25;29.83;;;1.50;99.90;;;;;;4875603;29;20131;-81
2023/02/11 09:50:01;;;;;;;48.00;27.70;;;1.50;99.90;;;;;;4892755;29;20078;-80
2023/02/11 09:52:40;;;;;;;40.50;26.30;;;1.50;99.90;;;;;;4895124;29;20819;-81
2023/02/11 09:55:28;;;;;;;45.90;26.30;;;1.50;99.90;;;;;;4898723;29;20055;-83
2023/02/11 09:57:56;;;;;;;46.53;26.55;;;1.50;99.90;;;;;;4889104;29;20415;-81
2023/02/11 10:00:31;;;;;;;41.38;26.95;;;1.50;99.90;;;;;;4881865;29;20063;-80
2023/02/11 10:03:25;;;;;;;43.97;27.45;;;1.50;99.90;;;;;;4886815;29;20121;-81
2023/02/11 10:06:29;;;;;;;55.25;28.25;;;1.60;99.90;;;;;;4890620;29;20080;-81
2023/02/11 10:09:17;;;;;;;51.10;30.30;;;1.60;99.90;;;;;;4889769;29;20080;-80
2023/02/11 10:11:56;;;;;;;53.17;29.52;;;1.70;99.90;;;;;;4888003;29;20073;-81
2023/02/11 10:14:53;;;;;;;51.20;31.20;;;1.80;99.90;;;;;;4894611;29;20048;-81
2023/02/11 10:17:45;;;;;;;51.10;30.40;;;1.90;99.90;;;;;;4881726;29;20054;-81
2023/02/11 10:20:41;;;;;;;53.65;30.63;;;1.90;99.90;;;;;;4876651;29;20143;-81
2023/02/11 10:23:09;;;;;;;52.88;30.83;;;2.00;99.90;;;;;;4897888;29;20080;-82
2023/02/11 10:25:58;;;;;;;46.83;28.67;;;2.00;99.90;;;;;;4888164;29;20080;-81
2023/02/11 10:28:35;;;;;;;47.78;28.65;;;2.10;99.90;;;;;;4870640;29;20056;-81
2023/02/11 10:31:13;;;;;;;51.33;29.73;;;2.10;99.90;;;;;;4893520;29;20049;-81
2023/02/11 10:34:00;;;;;;;49.15;27.40;;;2.20;99.90;;;;;;4893101;29;20112;-81
2023/02/11 10:36:31;;;;;;;41.67;26.67;;;2.30;99.90;;;;;;4876432;29;20052;-81
2023/02/11 10:39:13;;;;;;;45.60;25.85;;;2.40;99.90;;;;;;4889150;29;20064;-81
2023/02/11 10:42:05;;;;;;;46.08;27.05;;;2.40;99.90;;;;;;4884576;29;20053;-81
2023/02/11 10:44:47;;;;;;;45.25;28.15;;;2.50;99.90;;;;;;4889401;29;20125;-82
2023/02/11 10:47:22;;;;;;;50.28;32.05;;;2.60;99.90;;;;;;4892548;29;20127;-81
2023/02/11 10:49:49;;;;;;;50.08;30.50;;;2.60;99.90;;;;;;4883159;29;20059;-82
2023/02/11 10:52:22;;;;;;;50.47;31.65;;;2.70;99.90;;;;;;4884839;29;20084;-81
2023/02/11 10:54:58;;;;;;;53.15;34.05;;;2.80;99.90;;;;;;4886213;29;20049;-81
2023/02/11 10:57:32;;;;;;;54.38;30.73;;;2.80;99.90;;;;;;4893827;29;20056;-81
2023/02/11 11:00:25;;;;;;;50.53;32.22;;;2.90;99.90;;;;;;4880751;29;20506;-81
2023/02/11 11:02:56;;;;;;;54.45;31.60;;;2.90;99.90;;;;;;4884904;29;20486;-81
2023/02/11 11:05:31;;;;;;;52.53;31.98;;;3.00;99.90;;;;;;4900237;29;20052;-81
2023/02/11 11:08:07;;;;;;;66.53;32.55;;;3.00;99.90;;;;;;4892242;29;20073;-79
2023/02/11 11:10:42;;;;;;;52.92;32.65;;;3.10;99.90;;;;;;4880109;29;20526;-81
2023/02/11 11:13:26;;;;;;;49.88;30.90;;;3.10;99.90;;;;;;4892698;29;20471;-81
2023/02/11 11:16:26;;;;;;;51.78;31.92;;;3.10;99.90;;;;;;4876217;29;20077;-80
2023/02/11 11:19:12;;;;;;;;;;;3.20;99.90;;;;;;4875343;29;20057;-81
2023/02/11 11:21:46;;;;;;;50.95;30.67;;;3.20;99.90;;;;;;4887896;29;19979;-82
2023/02/11 11:24:20;;;;;;;51.50;32.55;;;3.20;99.90;;;;;;4897289;29;20056;-81
2023/02/11 11:26:52;;;;;;;52.67;30.95;;;3.30;99.90;;;;;;4897675;29;20084;-81
2023/02/11 11:29:41;;;;;;;48.15;30.08;;;3.30;99.90;;;;;;4884301;29;20044;-81
2023/02/11 11:32:35;;;;;;;52.67;30.55;;;3.30;99.90;;;;;;4882738;29;20089;-82
2023/02/11 11:35:08;;;;;;;48.55;32.22;;;3.40;99.90;;;;;;4878218;29;20463;-81
2023/02/11 11:37:36;;;;;;;51.42;30.77;;;3.40;99.90;;;;;;4889330;29;20057;-82
2023/02/11 11:40:15;;;;;;;49.88;31.10;;;3.40;99.90;;;;;;4871625;29;20128;-82
2023/02/11 11:42:42;;;;;;;48.65;29.30;;;3.50;99.90;;;;;;4887774;29;20071;-81
2023/02/11 11:45:16;;;;;;;49.67;29.98;;;3.50;99.90;;;;;;4897367;29;20052;-82
2023/02/11 11:47:59;;;;;;;42.38;27.55;;;3.50;99.90;;;;;;4898398;29;20609;-82
2023/02/11 11:50:38;;;;;;;46.88;29.48;;;3.60;99.90;;;;;;4898661;29;20131;-82
2023/02/11 11:53:29;;;;;;;44.53;28.05;;;3.60;99.90;;;;;;4895735;29;20061;-82
2023/02/11 11:56:20;;;;;;;44.88;28.08;;;3.60;99.90;;;;;;4894435;29;20496;-81
2023/02/11 11:58:48;;;;;;;43.50;28.63;;;3.70;99.90;;;;;;4896197;29;20083;-81
2023/02/11 12:01:42;;;;;;;44.72;27.50;;;3.70;99.90;;;;;;4890006;29;20073;-82
2023/02/11 12:04:27;;;;;;;49.58;28.73;;;3.80;99.90;;;;;;4894820;29;20053;-82
2023/02/11 12:07:13;;;;;;;43.55;26.88;;;3.90;99.90;;;;;;4892942;29;20076;-82
2023/02/11 12:09:58;;;;;;;44.78;28.33;;;3.90;99.90;;;;;;4899538;29;20055;-81
2023/02/11 12:12:33;;;;;;;44.08;27.77;;;4.00;99.90;;;;;;4874927;29;20080;-81
2023/02/11 12:15:14;;;;;;;44.70;26.60;;;4.00;99.90;;;;;;4893646;29;20139;-81
2023/02/11 12:17:50;;;;;;;45.35;28.27;;;4.00;99.90;;;;;;4897115;29;20145;-82
2023/02/11 12:20:54;;;;;;;46.25;27.30;;;4.10;99.90;;;;;;4889662;29;20051;-81
2023/02/11 12:23:54;;;;;;;40.05;25.88;;;4.10;99.90;;;;;;4896873;29;20436;-81
2023/02/11 12:26:25;;;;;;;42.50;25.25;;;4.20;99.90;;;;;;4891782;29;20059;-82
2023/02/11 12:29:18;;;;;;;42.83;25.20;;;4.20;99.90;;;;;;4877041;29;20051;-81
2023/02/11 12:32:20;;;;;;;43.53;26.88;;;4.20;99.90;;;;;;4891473;29;20058;-82
2023/02/11 12:35:04;;;;;;;36.63;24.20;;;4.30;99.90;;;;;;4890595;29;20049;-81
2023/02/11 12:37:49;;;;;;;42.63;23.50;;;4.30;99.90;;;;;;4885198;29;20132;-81
2023/02/11 12:40:32;;;;;;;42.63;23.13;;;4.40;99.90;;;;;;4897000;29;20087;-81
2023/02/11 12:43:16;;;;;;;38.00;21.88;;;4.40;99.90;;;;;;4801223;29;20061;-81
2023/02/11 12:45:46;;;;;;;41.28;22.63;;;4.50;99.90;;;;;;4859090;29;20049;-81
2023/02/11 12:48:31;;;;;;;39.38;22.50;;;4.50;99.90;;;;;;4850697;29;20053;-81
2023/02/11 12:51:28;;;;;;;37.80;20.35;;;4.60;99.90;;;;;;4858334;29;20056;-83
2023/02/11 12:54:12;;;;;;;41.05;20.45;;;4.60;99.90;;;;;;4850039;29;20054;-84
2023/02/11 12:57:05;;;;;;;37.00;21.73;;;4.60;99.90;;;;;;4860651;29;20439;-82
2023/02/11 12:59:48;;;;;;;39.92;21.60;;;4.70;99.90;;;;;;4854784;29;20049;-81
2023/02/11 13:02:27;;;;;;;36.78;21.30;;;4.70;99.90;;;;;;4860680;29;20365;-82